Time;durP1;ratioP1;P1;durP2;ratioP2;P2;SDS_P1;SDS_P2;PMS_P1;PMS_P2;Temp;Humidity;BMP_temperature;BMP_pressure;BME280_temperature;BME280_humidity;BME280_pressure;Samples;Min_cycle;Max_cycle;Signal;HPM_P1;HPM_P2
2024/02/15 00:00:58;;;;;;;5.60;3.33;;;7.50;99.90;;;;;;5019373;28;20049;-35
2024/02/15 00:03:23;;;;;;;5.63;3.40;;;7.50;99.90;;;;;;5025025;28;20036;-34
2024/02/15 00:05:49;;;;;;;4.32;3.05;;;7.40;99.90;;;;;;5030659;28;20482;-32
2024/02/15 00:08:15;;;;;;;6.22;2.90;;;7.40;99.90;;;;;;5019931;28;20699;-35
2024/02/15 00:10:40;;;;;;;3.55;2.53;;;7.40;99.90;;;;;;5022976;28;20565;-33
2024/02/15 00:13:06;;;;;;;6.28;2.80;;;7.40;99.90;;;;;;5021646;28;20091;-36
2024/02/15 00:15:34;;;;;;;4.25;3.05;;;7.40;99.90;;;;;;5018385;28;20120;-33
2024/02/15 00:18:00;;;;;;;3.65;2.40;;;7.40;99.90;;;;;;5017697;28;20353;-35
2024/02/15 00:20:25;;;;;;;2.72;2.03;;;7.20;99.90;;;;;;5021486;28;20045;-34
2024/02/15 00:22:52;;;;;;;5.00;2.03;;;7.20;99.90;;;;;;5018143;28;20159;-36
2024/02/15 00:25:19;;;;;;;3.15;2.30;;;7.20;99.90;;;;;;5017629;28;20478;-34
2024/02/15 00:27:45;;;;;;;4.07;2.42;;;7.00;99.90;;;;;;5020216;28;20099;-40
2024/02/15 00:30:11;;;;;;;2.75;2.30;;;6.80;99.90;;;;;;5019274;28;20497;-36
2024/02/15 00:32:37;;;;;;;2.28;2.05;;;6.60;99.90;;;;;;5015582;28;20041;-34
2024/02/15 00:35:07;;;;;;;2.83;2.45;;;6.40;99.90;;;;;;5024350;28;20646;-38
2024/02/15 00:37:33;;;;;;;2.33;2.13;;;6.40;99.90;;;;;;5021029;28;20021;-33
2024/02/15 00:39:59;;;;;;;3.28;2.03;;;6.30;99.90;;;;;;5017864;28;20520;-35
2024/02/15 00:42:25;;;;;;;2.45;2.08;;;6.30;99.90;;;;;;5016152;28;20029;-37
2024/02/15 00:44:51;;;;;;;2.40;2.10;;;6.30;99.90;;;;;;5019954;28;20079;-37
2024/02/15 00:47:19;;;;;;;3.05;2.75;;;6.40;99.90;;;;;;5018656;28;20661;-35
2024/02/15 00:49:45;;;;;;;4.05;2.10;;;6.50;99.90;;;;;;5024912;28;21237;-37
2024/02/15 00:52:11;;;;;;;3.95;2.33;;;6.50;99.90;;;;;;5022900;28;20088;-40
2024/02/15 00:54:36;;;;;;;2.58;1.95;;;6.60;99.90;;;;;;5022577;28;20370;-39
2024/02/15 00:57:02;;;;;;;2.78;1.90;;;6.70;99.90;;;;;;5025990;28;20021;-40
2024/02/15 00:59:27;;;;;;;1.40;1.30;;;6.70;99.90;;;;;;5026947;28;20061;-37
2024/02/15 01:01:54;;;;;;;2.72;2.05;;;6.70;99.90;;;;;;5023072;28;20389;-40
2024/02/15 01:04:19;;;;;;;2.60;1.95;;;6.30;99.90;;;;;;5026240;28;20025;-38
2024/02/15 01:06:45;;;;;;;1.80;1.70;;;6.00;99.90;;;;;;5026063;28;20087;-38
2024/02/15 01:09:11;;;;;;;3.50;1.60;;;6.10;99.90;;;;;;5021849;28;20057;-37
2024/02/15 01:11:37;;;;;;;2.08;1.80;;;6.10;99.90;;;;;;5021991;28;20033;-35
2024/02/15 01:14:03;;;;;;;3.75;2.53;;;5.90;99.90;;;;;;5019986;28;20383;-37
2024/02/15 01:16:29;;;;;;;2.65;1.83;;;5.90;99.90;;;;;;5022391;28;20459;-33
2024/02/15 01:18:55;;;;;;;2.85;2.08;;;5.90;99.90;;;;;;5020244;28;20060;-38
2024/02/15 01:21:22;;;;;;;2.20;1.98;;;6.00;99.90;;;;;;5023442;28;20025;-32
2024/02/15 01:23:47;;;;;;;1.92;1.83;;;6.10;99.90;;;;;;5021805;28;20049;-34
2024/02/15 01:26:14;;;;;;;3.47;1.77;;;6.20;99.90;;;;;;5020320;28;20037;-34
2024/02/15 01:28:43;;;;;;;2.03;1.70;;;6.40;99.90;;;;;;5022666;28;20057;-32
2024/02/15 01:31:10;;;;;;;2.20;2.00;;;6.40;99.90;;;;;;5024644;28;20514;-35
2024/02/15 01:33:36;;;;;;;2.90;2.00;;;6.50;99.90;;;;;;5022076;28;20037;-33
2024/02/15 01:36:02;;;;;;;4.18;2.03;;;6.50;99.90;;;;;;5020113;28;20132;-34
2024/02/15 01:38:28;;;;;;;3.22;2.50;;;6.60;99.90;;;;;;5024043;28;20049;-32
2024/02/15 01:40:53;;;;;;;2.08;1.88;;;6.60;99.90;;;;;;5020802;28;20033;-35
2024/02/15 01:43:19;;;;;;;2.13;1.92;;;6.50;99.90;;;;;;5023944;28;20060;-34
2024/02/15 01:45:48;;;;;;;2.10;1.90;;;6.40;99.90;;;;;;5023653;28;20176;-31
2024/02/15 01:48:15;;;;;;;2.13;1.92;;;6.30;99.90;;;;;;5021491;28;20104;-33
2024/02/15 01:50:41;;;;;;;1.95;1.85;;;6.30;99.90;;;;;;5022752;28;20040;-33
2024/02/15 01:53:09;;;;;;;3.13;1.70;;;6.40;99.90;;;;;;5025411;28;20025;-35
2024/02/15 01:55:35;;;;;;;2.95;1.90;;;6.40;99.90;;;;;;5022298;28;20471;-35
2024/02/15 01:58:01;;;;;;;2.03;1.60;;;6.50;99.90;;;;;;5025123;28;20028;-33
2024/02/15 02:00:27;;;;;;;1.88;1.73;;;6.50;99.90;;;;;;5019140;28;20025;-40
2024/02/15 02:02:53;;;;;;;2.22;1.92;;;6.60;99.90;;;;;;5020120;28;20063;-40
2024/02/15 02:05:19;;;;;;;3.28;2.42;;;6.60;99.90;;;;;;5023744;28;20444;-41
2024/02/15 02:07:45;;;;;;;35.80;13.45;;;6.70;99.90;;;;;;5020773;28;20072;-40
2024/02/15 02:10:12;;;;;;;2.22;2.03;;;6.70;99.90;;;;;;5005588;28;20618;-42
2024/02/15 02:12:40;;;;;;;2.78;1.95;;;6.70;99.90;;;;;;5022370;28;20542;-40
2024/02/15 02:15:11;;;;;;;4.40;2.10;;;6.80;99.90;;;;;;5024038;28;20033;-38
2024/02/15 02:17:37;;;;;;;1.70;1.60;;;6.80;99.90;;;;;;5017398;28;20033;-40
2024/02/15 02:20:08;;;;;;;1.98;1.80;;;6.80;99.90;;;;;;5021890;28;20044;-39
2024/02/15 02:25:56;;;;;;;2.58;1.80;;;6.80;99.90;;;;;;5027768;28;20068;-37
2024/02/15 02:28:22;;;;;;;2.17;1.70;;;6.80;99.90;;;;;;5027195;28;20462;-33
2024/02/15 02:30:48;;;;;;;1.83;1.40;;;6.70;99.90;;;;;;5020708;28;20041;-33
2024/02/15 02:33:23;;;;;;;3.28;1.83;;;6.60;99.90;;;;;;5021465;28;20026;-34
2024/02/15 02:35:48;;;;;;;1.80;1.70;;;6.50;99.90;;;;;;5021737;28;20029;-34
2024/02/15 02:38:14;;;;;;;1.42;1.33;;;6.60;99.90;;;;;;5024052;28;20075;-33
2024/02/15 02:40:41;;;;;;;2.65;1.70;;;6.60;99.90;;;;;;5022700;28;20044;-33
2024/02/15 02:43:07;;;;;;;2.10;1.60;;;6.70;99.90;;;;;;5020373;28;20036;-35
2024/02/15 02:45:33;;;;;;;1.92;1.75;;;6.70;99.90;;;;;;5023926;28;20411;-32
2024/02/15 02:47:58;;;;;;;1.95;1.85;;;6.70;99.90;;;;;;5019062;28;20387;-37
2024/02/15 02:50:24;;;;;;;1.67;1.58;;;6.60;99.90;;;;;;5022637;28;20037;-34
2024/02/15 02:52:50;;;;;;;2.08;1.95;;;6.70;99.90;;;;;;5021062;28;20032;-32
2024/02/15 02:55:16;;;;;;;2.30;1.77;;;6.70;99.90;;;;;;5027994;28;20052;-35
2024/02/15 02:57:42;;;;;;;1.90;1.80;;;6.70;99.90;;;;;;5018659;28;20037;-35
2024/02/15 03:00:16;;;;;;;2.05;1.85;;;6.70;99.90;;;;;;5021599;28;20099;-35
2024/02/15 03:02:45;;;;;;;3.22;1.70;;;6.70;99.90;;;;;;5017886;28;20034;-35
2024/02/15 03:05:12;;;;;;;1.90;1.80;;;6.70;99.90;;;;;;5021921;28;20568;-33
2024/02/15 03:07:40;;;;;;;2.15;1.70;;;6.70;99.90;;;;;;5020407;28;20026;-32
2024/02/15 03:10:08;;;;;;;1.98;1.83;;;6.70;99.90;;;;;;5021038;28;20033;-33
2024/02/15 03:12:37;;;;;;;2.67;2.00;;;6.70;99.90;;;;;;5025564;28;20048;-39
2024/02/15 03:15:11;;;;;;;1.90;1.80;;;6.50;99.90;;;;;;5021512;28;20032;-41
2024/02/15 03:17:55;;;;;;;2.00;1.90;;;6.60;99.90;;;;;;5018831;28;20104;-42
2024/02/15 03:20:21;;;;;;;1.90;1.80;;;6.60;99.90;;;;;;5017824;28;20379;-40
2024/02/15 03:23:02;;;;;;;2.83;1.80;;;6.60;99.90;;;;;;5020629;28;20045;-42
2024/02/15 03:25:29;;;;;;;1.70;1.60;;;6.50;99.90;;;;;;5020293;28;20037;-37
2024/02/15 03:27:57;;;;;;;2.00;1.80;;;6.50;99.90;;;;;;5004314;28;20041;-37
2024/02/15 03:30:24;;;;;;;1.75;1.60;;;6.50;99.90;;;;;;5022292;28;20511;-34
2024/02/15 03:32:53;;;;;;;1.70;1.60;;;6.50;99.90;;;;;;5018421;28;20049;-36
2024/02/15 03:35:22;;;;;;;1.55;1.45;;;6.50;99.90;;;;;;5022108;28;21045;-35
2024/02/15 03:37:51;;;;;;;3.75;1.40;;;6.40;99.90;;;;;;5021780;28;20582;-33
2024/02/15 03:40:18;;;;;;;1.50;1.40;;;6.40;99.90;;;;;;5016561;28;20036;-36
2024/02/15 03:42:43;;;;;;;1.80;1.67;;;6.30;99.90;;;;;;5018067;28;20095;-35
2024/02/15 03:45:10;;;;;;;1.77;1.40;;;6.30;99.90;;;;;;5019524;28;20033;-34
2024/02/15 03:47:36;;;;;;;4.95;1.50;;;6.20;99.90;;;;;;5018369;28;20034;-34
2024/02/15 03:50:03;;;;;;;1.50;1.40;;;6.20;99.90;;;;;;5023267;28;20591;-33
2024/02/15 03:52:31;;;;;;;1.55;1.20;;;6.10;99.90;;;;;;5021287;28;20506;-33
2024/02/15 03:54:57;;;;;;;;;;;6.10;99.90;;;;;;5025959;28;20033;-32
2024/02/15 03:57:26;;;;;;;1.50;1.40;;;6.10;99.90;;;;;;5024813;28;20405;-32
2024/02/15 03:59:57;;;;;;;3.15;1.77;;;6.10;99.90;;;;;;5019938;28;20029;-33
2024/02/15 04:02:26;;;;;;;1.88;1.60;;;6.10;99.90;;;;;;5019699;28;20495;-33
2024/02/15 04:04:52;;;;;;;2.08;1.88;;;6.00;99.90;;;;;;5019536;28;20484;-36
2024/02/15 04:07:18;;;;;;;2.78;1.60;;;6.00;99.90;;;;;;5016459;28;20140;-35
2024/02/15 04:09:47;;;;;;;1.75;1.58;;;6.00;99.90;;;;;;5021685;28;20025;-33
2024/02/15 04:12:13;;;;;;;2.63;1.60;;;5.90;99.90;;;;;;5019984;28;20034;-33
2024/02/15 04:14:40;;;;;;;1.67;1.42;;;5.80;99.90;;;;;;5022312;28;20157;-32
2024/02/15 04:17:06;;;;;;;2.08;1.60;;;5.80;99.90;;;;;;5021111;28;20060;-34
2024/02/15 04:19:33;;;;;;;2.08;1.98;;;5.70;99.90;;;;;;5020170;28;20125;-34
2024/02/15 04:22:00;;;;;;;1.70;1.60;;;5.60;99.90;;;;;;5019539;28;20349;-40
2024/02/15 04:24:29;;;;;;;2.25;1.60;;;5.60;99.90;;;;;;5037399;28;21216;-43
2024/02/15 04:26:55;;;;;;;1.45;1.35;;;5.60;99.90;;;;;;5023857;28;20060;-42
2024/02/15 04:29:20;;;;;;;2.92;1.75;;;5.60;99.90;;;;;;5020636;28;20041;-41
2024/02/15 04:31:50;;;;;;;3.50;1.67;;;5.70;99.90;;;;;;5022560;28;20061;-41
2024/02/15 04:34:16;;;;;;;1.55;1.45;;;5.60;99.90;;;;;;5023939;28;20025;-43
2024/02/15 04:36:49;;;;;;;2.15;1.95;;;5.60;99.90;;;;;;5024353;28;20038;-34
2024/02/15 04:39:23;;;;;;;2.13;1.88;;;5.60;99.90;;;;;;5027117;28;20524;-39
2024/02/15 04:41:50;;;;;;;2.40;1.60;;;5.60;99.90;;;;;;5030333;28;20018;-41
2024/02/15 04:44:16;;;;;;;2.45;1.48;;;5.60;99.90;;;;;;5026384;28;20033;-38
2024/02/15 04:46:45;;;;;;;1.52;1.42;;;5.50;99.90;;;;;;5022896;28;20412;-41
2024/02/15 04:49:10;;;;;;;2.28;1.50;;;5.50;99.90;;;;;;5024639;28;20052;-38
2024/02/15 04:51:36;;;;;;;3.13;1.90;;;5.40;99.90;;;;;;5023467;28;20033;-38
2024/02/15 04:54:02;;;;;;;2.35;1.73;;;5.30;99.90;;;;;;5027700;28;20080;-39
2024/02/15 04:56:27;;;;;;;2.17;1.75;;;5.10;99.90;;;;;;5025948;28;20418;-41
2024/02/15 04:58:53;;;;;;;1.48;1.35;;;5.00;99.90;;;;;;5023163;28;20483;-38
2024/02/15 05:01:19;;;;;;;2.05;1.63;;;4.90;99.90;;;;;;5023631;28;20033;-40
2024/02/15 05:03:45;;;;;;;3.80;2.42;;;4.90;99.90;;;;;;5024002;28;20104;-41
2024/02/15 05:06:12;;;;;;;3.42;2.08;;;5.00;99.90;;;;;;5025488;28;20864;-40
2024/02/15 05:08:42;;;;;;;1.80;1.65;;;4.90;99.90;;;;;;5027157;28;20029;-41
2024/02/15 05:11:17;;;;;;;3.67;1.65;;;5.00;99.90;;;;;;5031558;28;20743;-41
2024/02/15 05:13:44;;;;;;;1.75;1.65;;;5.00;99.90;;;;;;5027113;28;20483;-41
2024/02/15 05:16:10;;;;;;;4.13;2.22;;;4.90;99.90;;;;;;5025373;28;20056;-38
2024/02/15 05:18:37;;;;;;;2.45;1.77;;;4.90;99.90;;;;;;5024134;28;20504;-39
2024/02/15 05:21:04;;;;;;;1.67;1.45;;;4.90;99.90;;;;;;5025483;28;20442;-40
2024/02/15 05:23:30;;;;;;;2.35;1.77;;;4.80;99.90;;;;;;5021138;28;20041;-39
2024/02/15 05:25:56;;;;;;;1.80;1.70;;;4.80;99.90;;;;;;5024950;28;20033;-39
2024/02/15 05:28:26;;;;;;;1.85;1.75;;;4.80;99.90;;;;;;5022499;28;20132;-40
2024/02/15 05:31:12;;;;;;;7.15;2.42;;;4.80;99.90;;;;;;5021951;28;20069;-35
2024/02/15 05:33:43;;;;;;;1.88;1.75;;;4.80;99.90;;;;;;5019744;28;20041;-33
2024/02/15 05:36:20;;;;;;;2.13;1.92;;;4.80;99.90;;;;;;5021603;28;20053;-33
2024/02/15 05:38:52;;;;;;;5.28;1.95;;;4.70;99.90;;;;;;5024368;28;20037;-36
2024/02/15 05:41:20;;;;;;;1.90;1.80;;;4.60;99.90;;;;;;5022435;28;20315;-34
2024/02/15 05:43:48;;;;;;;1.90;1.73;;;4.50;99.90;;;;;;5025057;28;20040;-33
2024/02/15 05:46:14;;;;;;;2.37;1.70;;;4.50;99.90;;;;;;5020438;28;20080;-34
2024/02/15 05:48:40;;;;;;;5.70;2.00;;;4.60;99.90;;;;;;5025531;28;20871;-33
2024/02/15 05:51:07;;;;;;;2.10;2.00;;;4.60;99.90;;;;;;5025778;28;20064;-34
2024/02/15 05:53:35;;;;;;;3.10;1.80;;;4.60;99.90;;;;;;5020850;28;20120;-36
2024/02/15 05:56:05;;;;;;;2.35;2.20;;;4.50;99.90;;;;;;5019549;28;20080;-38
2024/02/15 05:58:32;;;;;;;2.00;1.90;;;4.50;99.90;;;;;;5023919;28;20022;-35
2024/02/15 06:01:01;;;;;;;3.50;2.30;;;4.50;99.90;;;;;;5021692;28;20099;-35
2024/02/15 06:03:31;;;;;;;2.65;2.05;;;4.40;99.90;;;;;;5020417;28;20475;-38
2024/02/15 06:05:58;;;;;;;3.95;2.53;;;4.40;99.90;;;;;;5018175;28;20033;-35
2024/02/15 06:08:27;;;;;;;3.88;2.42;;;4.30;99.90;;;;;;5022596;28;20422;-36
2024/02/15 06:10:53;;;;;;;2.72;2.53;;;4.20;99.90;;;;;;5019165;28;22028;-36
2024/02/15 06:13:20;;;;;;;2.42;2.22;;;3.50;99.90;;;;;;5021275;28;20031;-34
2024/02/15 06:15:46;;;;;;;6.38;2.80;;;3.30;99.90;;;;;;5025822;28;20360;-38
2024/02/15 06:18:16;;;;;;;1.98;1.75;;;3.00;99.90;;;;;;5024019;28;20107;-34
2024/02/15 06:20:42;;;;;;;4.40;2.42;;;2.90;99.90;;;;;;5023206;28;20044;-39
2024/02/15 06:23:08;;;;;;;3.20;2.60;;;2.90;99.90;;;;;;5019710;28;20037;-37
2024/02/15 06:25:37;;;;;;;3.05;2.20;;;2.80;99.90;;;;;;5025412;28;20029;-34
2024/02/15 06:28:13;;;;;;;2.50;2.30;;;2.90;99.90;;;;;;5021967;28;20036;-35
2024/02/15 06:41:36;;;;;;;4.40;3.22;;;3.30;99.90;;;;;;5018444;28;20040;-40
2024/02/15 06:44:02;;;;;;;3.58;3.20;;;3.40;99.90;;;;;;5020974;28;20345;-41
2024/02/15 06:46:27;;;;;;;4.22;2.95;;;3.40;99.90;;;;;;5021733;28;20451;-43
2024/02/15 06:48:54;;;;;;;6.20;3.28;;;3.50;99.90;;;;;;5026627;28;20369;-38
2024/02/15 06:51:20;;;;;;;3.50;3.20;;;3.40;99.90;;;;;;5019876;28;20033;-41
2024/02/15 06:53:46;;;;;;;4.25;2.92;;;3.40;99.90;;;;;;5023318;28;20080;-43
2024/02/15 06:56:13;;;;;;;2.17;1.90;;;3.40;99.90;;;;;;5015781;28;20030;-41
2024/02/15 06:58:40;;;;;;;2.38;2.17;;;3.20;99.90;;;;;;5020894;28;20033;-42
2024/02/15 07:01:06;;;;;;;3.67;2.58;;;3.00;99.90;;;;;;5022520;28;20037;-41
2024/02/15 07:03:35;;;;;;;2.00;1.90;;;2.90;99.90;;;;;;5027613;28;20040;-41
2024/02/15 07:06:02;;;;;;;3.15;2.53;;;2.60;99.90;;;;;;5028110;28;20026;-39
2024/02/15 07:08:29;;;;;;;7.63;3.75;;;2.40;99.90;;;;;;5025809;28;20106;-38
2024/02/15 07:10:55;;;;;;;3.65;2.50;;;2.40;99.90;;;;;;5027352;28;20086;-40
2024/02/15 07:13:20;;;;;;;2.60;2.20;;;2.30;99.90;;;;;;5027935;28;20021;-41
2024/02/15 07:15:46;;;;;;;2.30;2.15;;;2.30;99.90;;;;;;5027157;28;20064;-41
2024/02/15 07:18:16;;;;;;;2.85;2.08;;;2.40;99.90;;;;;;5024007;28;20029;-40
2024/02/15 07:20:41;;;;;;;2.53;2.38;;;2.40;99.90;;;;;;5027980;28;20790;-39
2024/02/15 07:23:07;;;;;;;2.97;2.55;;;2.50;99.90;;;;;;5031134;28;20033;-41
2024/02/15 07:25:33;;;;;;;3.05;2.13;;;2.60;99.90;;;;;;5026741;28;20032;-39
2024/02/15 07:27:58;;;;;;;2.63;2.38;;;2.70;99.90;;;;;;5024547;28;20017;-40
2024/02/15 07:30:24;;;;;;;2.53;2.25;;;2.60;99.90;;;;;;5025247;28;20021;-40
2024/02/15 07:32:50;;;;;;;2.42;2.17;;;2.80;99.90;;;;;;5020029;28;20030;-35
2024/02/15 07:35:17;;;;;;;2.92;2.70;;;2.80;99.90;;;;;;5031426;28;20080;-41
2024/02/15 07:37:58;;;;;;;3.08;2.53;;;2.80;99.90;;;;;;5029398;28;20040;-38
2024/02/15 07:40:27;;;;;;;2.50;2.30;;;2.80;99.90;;;;;;5029307;28;20100;-41
2024/02/15 07:42:53;;;;;;;3.05;2.42;;;2.90;99.90;;;;;;5022957;28;20108;-40
2024/02/15 07:45:18;;;;;;;2.78;2.40;;;3.00;99.90;;;;;;5023662;28;20108;-40
2024/02/15 07:47:45;;;;;;;3.15;2.80;;;3.10;99.90;;;;;;5029773;28;20025;-41
2024/02/15 07:50:19;;;;;;;3.83;2.78;;;3.20;99.90;;;;;;5025901;28;20076;-38
2024/02/15 07:52:44;;;;;;;2.70;2.50;;;3.20;99.90;;;;;;5030734;28;20128;-34
2024/02/15 07:55:10;;;;;;;3.65;2.65;;;3.30;99.90;;;;;;5025965;28;20112;-34
2024/02/15 07:57:35;;;;;;;3.65;2.85;;;3.40;99.90;;;;;;5034511;28;20037;-35
2024/02/15 08:00:01;;;;;;;3.00;2.70;;;3.40;99.90;;;;;;5035216;28;20059;-34
2024/02/15 08:02:28;;;;;;;4.38;2.53;;;3.60;99.90;;;;;;5027939;28;20585;-36
2024/02/15 08:04:54;;;;;;;4.43;3.33;;;3.60;99.90;;;;;;5032883;28;20048;-37
2024/02/15 08:07:20;;;;;;;4.28;3.70;;;3.70;99.90;;;;;;5028041;28;20545;-35
2024/02/15 08:09:46;;;;;;;3.88;3.40;;;3.90;99.90;;;;;;5033429;28;20052;-36
2024/02/15 08:12:12;;;;;;;3.05;2.50;;;4.00;99.90;;;;;;5030226;28;20029;-37
2024/02/15 08:14:39;;;;;;;3.28;2.85;;;4.20;99.90;;;;;;5042126;28;20060;-40
2024/02/15 08:17:08;;;;;;;3.13;2.80;;;4.30;99.90;;;;;;5035256;28;20128;-40
2024/02/15 08:19:34;;;;;;;4.47;3.13;;;4.50;99.90;;;;;;5037199;28;20040;-40
2024/02/15 08:22:06;;;;;;;6.68;3.95;;;4.50;99.90;;;;;;5028525;28;20057;-40
2024/02/15 08:24:31;;;;;;;3.85;3.35;;;4.60;99.90;;;;;;5037003;28;20123;-39
2024/02/15 08:26:59;;;;;;;5.00;2.63;;;4.70;99.90;;;;;;5034966;28;20037;-40
2024/02/15 08:29:25;;;;;;;3.58;2.85;;;4.90;99.90;;;;;;5027095;28;20083;-40
2024/02/15 08:31:50;;;;;;;4.03;3.03;;;4.90;99.90;;;;;;5030095;28;20060;-37
2024/02/15 08:34:18;;;;;;;4.82;2.72;;;5.00;99.90;;;;;;5032888;28;20037;-41
2024/02/15 08:36:44;;;;;;;4.30;2.92;;;5.10;99.90;;;;;;5028502;28;20053;-40
2024/02/15 08:39:11;;;;;;;3.17;2.50;;;5.10;99.90;;;;;;5032148;28;20092;-39
2024/02/15 08:41:38;;;;;;;3.85;2.90;;;5.30;99.90;;;;;;5028392;28;20033;-37
2024/02/15 08:44:09;;;;;;;2.50;2.30;;;5.30;99.90;;;;;;5029785;28;20092;-41
2024/02/15 08:46:36;;;;;;;3.72;2.40;;;5.40;99.90;;;;;;5030236;28;20365;-40
2024/02/15 08:49:02;;;;;;;3.58;2.70;;;5.60;99.90;;;;;;5026847;28;20029;-38
2024/02/15 08:51:30;;;;;;;3.22;2.30;;;5.70;99.90;;;;;;5035809;28;20368;-40
2024/02/15 08:53:56;;;;;;;2.88;2.60;;;5.90;99.90;;;;;;5034522;28;20030;-39
2024/02/15 08:56:23;;;;;;;4.32;2.80;;;6.10;99.90;;;;;;5036700;28;20013;-38
2024/02/15 08:58:49;;;;;;;3.38;2.70;;;6.30;99.90;;;;;;5030879;28;20025;-41
2024/02/15 09:01:14;;;;;;;3.05;2.22;;;6.40;99.90;;;;;;5035461;28;20139;-38
2024/02/15 09:03:40;;;;;;;5.00;2.28;;;6.50;99.90;;;;;;5032115;28;20079;-40
2024/02/15 09:06:07;;;;;;;4.35;2.28;;;6.70;99.90;;;;;;5030509;28;20416;-40
2024/02/15 09:08:33;;;;;;;3.15;1.95;;;6.90;99.90;;;;;;5028809;28;20044;-39
2024/02/15 09:10:59;;;;;;;2.20;1.77;;;7.10;99.90;;;;;;5022650;28;20052;-41
2024/02/15 09:13:24;;;;;;;2.35;2.15;;;7.20;99.90;;;;;;5031063;28;20391;-36
2024/02/15 09:15:50;;;;;;;2.28;2.08;;;7.40;99.90;;;;;;5027969;28;20034;-41
2024/02/15 09:18:17;;;;;;;3.10;2.15;;;7.60;99.90;;;;;;5030866;28;20112;-40
2024/02/15 09:20:45;;;;;;;1.85;1.70;;;7.80;99.90;;;;;;5029407;28;20365;-34
2024/02/15 09:23:12;;;;;;;4.20;2.10;;;8.00;99.90;;;;;;5028118;28;20033;-35
2024/02/15 09:25:44;;;;;;;2.47;1.90;;;8.20;99.90;;;;;;5027375;28;20477;-33
2024/02/15 09:28:10;;;;;;;2.20;2.00;;;8.40;99.90;;;;;;5023493;28;20024;-34
2024/02/15 09:30:36;;;;;;;3.85;1.85;;;8.50;99.90;;;;;;5028976;28;20036;-35
2024/02/15 09:33:04;;;;;;;3.38;2.00;;;8.70;99.90;;;;;;5028417;28;20097;-34
2024/02/15 09:35:31;;;;;;;3.13;1.73;;;8.90;99.90;;;;;;5026737;28;20045;-34
2024/02/15 09:37:56;;;;;;;2.78;1.92;;;9.10;99.90;;;;;;5028077;28;20025;-36
2024/02/15 09:40:26;;;;;;;4.55;2.10;;;9.30;99.90;;;;;;5027907;28;20394;-33
2024/02/15 09:42:52;;;;;;;2.65;1.80;;;9.40;99.90;;;;;;5024872;28;20478;-38
2024/02/15 09:45:20;;;;;;;2.25;1.80;;;9.50;99.90;;;;;;5026069;28;20030;-33
2024/02/15 09:47:48;;;;;;;2.28;2.08;;;9.80;99.90;;;;;;5035196;28;20037;-35
2024/02/15 09:50:16;;;;;;;2.75;2.55;;;9.90;99.90;;;;;;5032022;28;20471;-34
2024/02/15 09:52:53;;;;;;;2.53;2.33;;;9.90;99.90;;;;;;5031716;28;20372;-34
2024/02/15 09:55:22;;;;;;;2.13;1.50;;;10.10;99.90;;;;;;5030520;28;20752;-33
2024/02/15 09:57:49;;;;;;;4.80;1.98;;;10.30;99.90;;;;;;5028690;28;20723;-34
2024/02/15 10:00:16;;;;;;;1.88;1.75;;;10.40;99.90;;;;;;5026844;28;20148;-35
2024/02/15 10:02:48;;;;;;;3.90;1.85;;;10.50;99.90;;;;;;5027085;28;20392;-35
2024/02/15 10:05:13;;;;;;;2.22;1.63;;;10.60;99.90;;;;;;5023609;28;20033;-33
2024/02/15 10:07:40;;;;;;;2.13;1.70;;;10.70;99.90;;;;;;5031652;28;20029;-35
2024/02/15 10:10:23;;;;;;;2.50;1.45;;;10.80;99.90;;;;;;5034115;28;20255;-36
2024/02/15 10:12:56;;;;;;;1.73;1.63;;;10.90;99.90;;;;;;5026087;28;20061;-42
2024/02/15 10:15:29;;;;;;;2.63;1.77;;;11.10;99.90;;;;;;5029105;28;20025;-42
2024/02/15 10:17:56;;;;;;;3.65;1.65;;;11.20;99.90;;;;;;5027096;28;20048;-40
2024/02/15 10:20:25;;;;;;;2.25;1.70;;;11.20;99.90;;;;;;5031300;28;20029;-39
2024/02/15 10:23:09;;;;;;;3.67;1.80;;;11.20;99.90;;;;;;5026459;28;20056;-36
2024/02/15 10:25:35;;;;;;;2.22;2.00;;;11.40;99.90;;;;;;5027125;28;20030;-42
2024/02/15 10:28:07;;;;;;;2.97;2.00;;;11.40;99.90;;;;;;5029292;28;20032;-33
2024/02/15 10:30:44;;;;;;;3.70;2.15;;;11.40;99.90;;;;;;5028319;28;20403;-41
2024/02/15 10:33:20;;;;;;;3.10;2.40;;;11.30;99.90;;;;;;5035079;28;20050;-40
2024/02/15 10:35:46;;;;;;;1.35;1.10;;;11.40;99.90;;;;;;5030578;28;20067;-41
2024/02/15 10:38:13;;;;;;;2.65;1.60;;;11.50;99.90;;;;;;5027880;28;20812;-40
2024/02/15 10:40:42;;;;;;;1.88;1.35;;;11.50;99.90;;;;;;5028704;28;20505;-40
2024/02/15 10:43:12;;;;;;;1.65;1.00;;;11.60;99.90;;;;;;5026339;28;20037;-41
2024/02/15 10:45:39;;;;;;;1.67;0.98;;;11.90;99.90;;;;;;5027074;28;20029;-38
2024/02/15 10:48:09;;;;;;;2.17;1.10;;;12.00;99.90;;;;;;5032446;28;20414;-39
2024/02/15 10:50:36;;;;;;;1.75;1.08;;;12.10;99.90;;;;;;5027238;28;20028;-39
2024/02/15 10:53:15;;;;;;;2.40;1.20;;;12.10;99.90;;;;;;5025140;28;20041;-39
2024/02/15 10:55:51;;;;;;;3.53;1.00;;;12.20;99.90;;;;;;5032851;28;20476;-41
2024/02/15 10:58:20;;;;;;;1.52;1.40;;;12.30;99.90;;;;;;5015807;28;20089;-39
2024/02/15 11:00:47;;;;;;;1.20;1.10;;;12.30;99.90;;;;;;5026674;28;20557;-40
2024/02/15 11:03:24;;;;;;;1.23;1.00;;;12.40;99.90;;;;;;5026144;28;20029;-39
2024/02/15 11:05:50;;;;;;;2.22;1.00;;;12.40;99.90;;;;;;5024591;28;20499;-39
2024/02/15 11:08:16;;;;;;;1.33;1.23;;;12.40;99.90;;;;;;5033398;28;20148;-40
2024/02/15 11:10:43;;;;;;;1.05;1.05;;;12.70;99.90;;;;;;5025956;28;20160;-39
2024/02/15 11:13:09;;;;;;;0.82;0.82;;;12.60;99.90;;;;;;5029302;28;20039;-40
2024/02/15 11:15:35;;;;;;;2.03;1.20;;;12.70;99.90;;;;;;5025694;28;20021;-38
2024/02/15 11:18:01;;;;;;;1.70;1.00;;;12.70;99.90;;;;;;5025735;28;20036;-41
2024/02/15 11:20:32;;;;;;;0.77;0.77;;;12.80;99.90;;;;;;5024379;28;20033;-41
2024/02/15 11:22:59;;;;;;;1.38;1.10;;;12.90;99.90;;;;;;5026476;28;20706;-41
2024/02/15 11:25:39;;;;;;;2.28;1.20;;;12.90;99.90;;;;;;5028643;28;20037;-39
2024/02/15 11:28:23;;;;;;;1.00;0.93;;;13.00;99.90;;;;;;5028528;28;20037;-39
2024/02/15 11:30:52;;;;;;;1.70;1.20;;;13.10;99.90;;;;;;5023468;28;20091;-40
2024/02/15 11:33:44;;;;;;;1.25;1.13;;;13.00;99.90;;;;;;5028028;28;20029;-40
2024/02/15 11:36:11;;;;;;;1.65;0.98;;;12.90;99.90;;;;;;5027524;28;20499;-39
2024/02/15 11:38:44;;;;;;;1.30;1.20;;;12.90;99.90;;;;;;5030032;28;20029;-40
2024/02/15 11:41:10;;;;;;;1.58;1.48;;;13.00;99.90;;;;;;5021682;28;20037;-41
2024/02/15 11:43:45;;;;;;;1.30;1.20;;;13.00;99.90;;;;;;5023093;28;20017;-38
2024/02/15 11:46:18;;;;;;;2.10;1.33;;;13.10;99.90;;;;;;5007584;28;20064;-40
2024/02/15 11:48:52;;;;;;;1.90;1.80;;;13.00;99.90;;;;;;5028272;28;20043;-40
2024/02/15 11:51:42;;;;;;;1.70;1.50;;;12.80;99.90;;;;;;5029047;28;20475;-43
2024/02/15 11:54:12;;;;;;;4.05;2.10;;;12.80;99.90;;;;;;5008996;28;20028;-36
2024/02/15 11:56:43;;;;;;;1.70;1.30;;;12.80;99.90;;;;;;5028352;28;20450;-42
2024/02/15 11:59:18;;;;;;;1.92;1.30;;;12.90;99.90;;;;;;5021351;28;20031;-42
2024/02/15 12:18:47;;;;;;;0.60;0.60;;;13.30;99.90;;;;;;5024541;28;20495;-33
2024/02/15 12:21:17;;;;;;;2.17;1.48;;;13.50;99.90;;;;;;5026779;28;20033;-33
2024/02/15 12:23:43;;;;;;;2.63;1.50;;;13.40;99.90;;;;;;5037636;28;20037;-33
2024/02/15 12:26:09;;;;;;;2.75;1.25;;;13.50;99.90;;;;;;5022679;28;20033;-34
2024/02/15 12:28:35;;;;;;;1.30;1.20;;;13.60;99.90;;;;;;5025517;28;20028;-40
2024/02/15 12:31:01;;;;;;;1.73;1.17;;;13.50;99.90;;;;;;5031087;28;20040;-33
2024/02/15 12:33:27;;;;;;;2.50;1.40;;;13.60;99.90;;;;;;5032629;28;20092;-34
2024/02/15 12:36:07;;;;;;;2.33;1.20;;;13.50;99.90;;;;;;5023444;28;20169;-33
2024/02/15 12:38:36;;;;;;;1.65;1.00;;;13.50;99.90;;;;;;5025125;28;20057;-33
2024/02/15 12:41:03;;;;;;;1.90;1.20;;;13.50;99.90;;;;;;5033009;28;20033;-33
2024/02/15 12:43:29;;;;;;;1.35;1.25;;;13.60;99.90;;;;;;5026383;28;20029;-33
2024/02/15 12:45:56;;;;;;;1.30;1.20;;;13.50;99.90;;;;;;5031562;28;20048;-35
2024/02/15 12:48:22;;;;;;;1.80;1.10;;;13.50;99.90;;;;;;5027031;28;20148;-33
2024/02/15 12:50:48;;;;;;;1.98;1.02;;;13.40;99.90;;;;;;5028403;28;20574;-42
2024/02/15 12:53:21;;;;;;;3.03;1.17;;;13.40;99.90;;;;;;5027884;28;20030;-37
2024/02/15 12:55:55;;;;;;;2.08;1.40;;;13.50;99.90;;;;;;5032485;28;20033;-41
2024/02/15 12:58:24;;;;;;;0.90;0.90;;;13.50;99.90;;;;;;5030947;28;20029;-41
2024/02/15 13:00:50;;;;;;;0.90;0.90;;;13.60;99.90;;;;;;5027571;28;20513;-41
2024/02/15 13:03:17;;;;;;;1.95;1.00;;;13.70;99.90;;;;;;5027295;28;20116;-39
2024/02/15 13:05:43;;;;;;;1.10;1.00;;;13.80;99.90;;;;;;5028575;28;20112;-42
2024/02/15 13:08:17;;;;;;;1.33;1.23;;;13.70;99.90;;;;;;5028341;28;20550;-41
2024/02/15 13:10:42;;;;;;;2.03;1.00;;;13.80;99.90;;;;;;5033363;28;20083;-41
2024/02/15 13:13:09;;;;;;;1.73;1.30;;;13.80;99.90;;;;;;5033584;28;20034;-42
2024/02/15 13:15:36;;;;;;;2.10;1.15;;;13.80;99.90;;;;;;5032298;28;20024;-42
2024/02/15 13:18:04;;;;;;;0.90;0.90;;;13.90;99.90;;;;;;5027418;28;20448;-41
2024/02/15 13:20:32;;;;;;;1.33;1.23;;;14.00;99.90;;;;;;5025530;28;20026;-40
2024/02/15 13:23:22;;;;;;;1.42;1.10;;;14.00;99.90;;;;;;5025962;28;20033;-39
2024/02/15 13:25:49;;;;;;;0.98;0.93;;;14.10;99.90;;;;;;5024228;28;20538;-40
2024/02/15 13:28:15;;;;;;;2.00;1.20;;;14.20;99.90;;;;;;5025393;28;20059;-39
2024/02/15 13:30:43;;;;;;;1.10;1.02;;;14.20;99.90;;;;;;5023539;28;20719;-38